Time;durP1;ratioP1;P1;durP2;ratioP2;P2;SDS_P1;SDS_P2;PMS_P1;PMS_P2;Temp;Humidity;BMP_temperature;BMP_pressure;BME280_temperature;BME280_humidity;BME280_pressure;Samples;Min_cycle;Max_cycle;Signal;HPM_P1;HPM_P2
2022/08/13 00:02:08;;;;;;;4.63;3.38;;;19.50;99.90;;;;;;7392366;19;20010;-81
2022/08/13 00:04:34;;;;;;;6.35;3.47;;;19.50;99.90;;;;;;7392445;19;20014;-81
2022/08/13 00:09:26;;;;;;;8.23;3.83;;;19.40;99.90;;;;;;7392085;19;20018;-81
2022/08/13 00:14:37;;;;;;;6.47;4.10;;;19.30;99.90;;;;;;7395726;19;20114;-81
2022/08/13 00:17:06;;;;;;;4.93;3.83;;;19.30;99.90;;;;;;7399491;19;20235;-81
2022/08/13 00:19:32;;;;;;;8.55;4.15;;;19.20;99.90;;;;;;7398554;19;20022;-81
2022/08/13 00:21:59;;;;;;;4.57;3.88;;;19.20;99.90;;;;;;7401396;19;20360;-81
2022/08/13 00:24:26;;;;;;;6.75;4.10;;;19.20;99.90;;;;;;7397678;19;20022;-81
2022/08/13 00:26:51;;;;;;;7.10;3.70;;;19.10;99.90;;;;;;7399072;19;20077;-81
2022/08/13 00:29:18;;;;;;;8.68;4.38;;;19.00;99.90;;;;;;7398973;19;20015;-80
2022/08/13 00:31:46;;;;;;;7.00;4.47;;;18.90;99.90;;;;;;7397879;19;20035;-80
2022/08/13 00:34:12;;;;;;;7.03;4.40;;;18.90;99.90;;;;;;7398254;19;20388;-80
2022/08/13 00:36:38;;;;;;;7.80;4.40;;;18.90;99.90;;;;;;7399068;19;20007;-81
2022/08/13 00:39:08;;;;;;;5.25;4.05;;;18.90;99.90;;;;;;7395884;19;20018;-81
2022/08/13 00:41:39;;;;;;;4.95;4.13;;;18.90;99.90;;;;;;7399140;19;20070;-81
2022/08/13 00:44:07;;;;;;;5.72;4.60;;;18.90;99.90;;;;;;7399127;19;20376;-81
2022/08/13 00:46:34;;;;;;;8.25;4.10;;;19.00;99.90;;;;;;7398436;19;20021;-81
2022/08/13 00:49:03;;;;;;;6.95;4.30;;;19.00;99.90;;;;;;7397377;19;20018;-81
2022/08/13 00:51:31;;;;;;;8.30;4.70;;;19.00;99.90;;;;;;7398523;19;20023;-81
2022/08/13 00:53:58;;;;;;;6.28;4.32;;;19.00;99.90;;;;;;7398156;19;20033;-81
2022/08/13 00:56:26;;;;;;;6.03;4.65;;;19.00;99.90;;;;;;7397629;19;20014;-81
2022/08/13 00:58:53;;;;;;;8.57;4.43;;;19.00;99.90;;;;;;7398160;19;20037;-81
2022/08/13 01:01:20;;;;;;;5.68;4.72;;;18.90;99.90;;;;;;7398046;19;20074;-81
2022/08/13 01:03:47;;;;;;;7.20;4.85;;;18.90;99.90;;;;;;7398011;19;20482;-81
2022/08/13 01:06:13;;;;;;;6.10;4.68;;;18.80;99.90;;;;;;7397942;19;20007;-81
2022/08/13 01:08:40;;;;;;;9.10;4.65;;;18.80;99.90;;;;;;7396321;19;20127;-81
2022/08/13 01:11:08;;;;;;;8.05;4.53;;;18.80;99.90;;;;;;7397818;19;20011;-81
2022/08/13 01:13:37;;;;;;;7.40;4.72;;;18.80;99.90;;;;;;7397771;19;20006;-81
2022/08/13 01:16:13;;;;;;;5.15;4.63;;;18.70;99.90;;;;;;7397633;19;20027;-81
2022/08/13 01:18:51;;;;;;;6.05;4.90;;;18.70;99.90;;;;;;7397080;19;20386;-81
2022/08/13 01:21:24;;;;;;;5.95;4.40;;;18.70;99.90;;;;;;7399225;19;20021;-81
2022/08/13 01:23:52;;;;;;;10.00;4.65;;;18.70;99.90;;;;;;7397212;19;20007;-81
2022/08/13 01:26:21;;;;;;;6.65;4.32;;;18.60;99.90;;;;;;7391737;19;20029;-81
2022/08/13 01:28:50;;;;;;;5.57;4.13;;;18.60;99.90;;;;;;7397318;19;20006;-81
2022/08/13 01:31:18;;;;;;;7.18;4.05;;;18.50;99.90;;;;;;7395085;19;20010;-81
2022/08/13 01:33:50;;;;;;;6.65;4.35;;;18.50;99.90;;;;;;7396739;19;20014;-81
2022/08/13 01:36:16;;;;;;;6.72;3.80;;;18.60;99.90;;;;;;7396875;19;20011;-81
2022/08/13 01:38:42;;;;;;;7.22;4.32;;;18.60;99.90;;;;;;7396444;19;20093;-81
2022/08/13 01:41:09;;;;;;;6.25;4.63;;;18.70;99.90;;;;;;7396994;19;20038;-81
2022/08/13 01:43:37;;;;;;;6.47;4.10;;;18.70;99.90;;;;;;7396691;19;20070;-81
2022/08/13 01:46:05;;;;;;;4.55;4.10;;;18.70;99.90;;;;;;7394880;19;20018;-81
2022/08/13 01:51:23;;;;;;;7.10;4.07;;;18.70;99.90;;;;;;7396524;19;20070;-81
2022/08/13 01:53:54;;;;;;;5.18;4.10;;;18.60;99.90;;;;;;7396613;19;20014;-81
2022/08/13 01:56:22;;;;;;;4.65;4.03;;;18.70;99.90;;;;;;7396273;19;20010;-81
2022/08/13 01:58:54;;;;;;;5.18;3.90;;;18.70;99.90;;;;;;7395702;19;20027;-81
2022/08/13 02:01:26;;;;;;;5.90;3.75;;;18.70;99.90;;;;;;7395572;19;20046;-81
2022/08/13 02:03:53;;;;;;;4.47;3.88;;;18.70;99.90;;;;;;7396519;19;20377;-81
2022/08/13 02:06:28;;;;;;;4.82;4.30;;;18.60;99.90;;;;;;7396678;19;20021;-81
2022/08/13 02:09:04;;;;;;;5.70;4.40;;;18.70;99.90;;;;;;7395933;19;20112;-81
2022/08/13 02:11:36;;;;;;;4.68;4.13;;;18.70;99.90;;;;;;7396066;19;20017;-81
2022/08/13 02:14:04;;;;;;;4.80;4.07;;;18.70;99.90;;;;;;7396033;19;20010;-81
2022/08/13 02:16:33;;;;;;;7.30;4.47;;;18.70;99.90;;;;;;7396094;19;20086;-81
2022/08/13 02:19:01;;;;;;;7.03;4.20;;;18.60;99.90;;;;;;7395157;19;20010;-81
2022/08/13 02:21:32;;;;;;;7.70;4.18;;;18.70;99.90;;;;;;7399499;19;20026;-81
2022/08/13 02:23:59;;;;;;;6.32;3.95;;;18.60;99.90;;;;;;7395257;19;20410;-80
2022/08/13 02:26:27;;;;;;;6.97;4.18;;;18.60;99.90;;;;;;7391599;19;20078;-81
2022/08/13 02:29:00;;;;;;;7.07;4.20;;;18.50;99.90;;;;;;7393784;19;20006;-81
2022/08/13 02:31:27;;;;;;;;;;;18.50;99.90;;;;;;7396013;19;20554;-81
2022/08/13 02:33:53;;;;;;;5.78;4.03;;;18.40;99.90;;;;;;7394473;19;20339;-81
2022/08/13 02:36:21;;;;;;;5.90;3.55;;;18.40;99.90;;;;;;7394667;19;20010;-81
2022/08/13 02:39:04;;;;;;;6.65;4.10;;;18.40;99.90;;;;;;7394346;19;20365;-80
2022/08/13 02:41:40;;;;;;;7.85;4.50;;;18.50;99.90;;;;;;7394850;19;20014;-81
2022/08/13 02:44:10;;;;;;;7.88;4.07;;;18.50;99.90;;;;;;7394837;19;20014;-81
2022/08/13 02:46:37;;;;;;;7.22;4.20;;;18.50;99.90;;;;;;7394944;19;20013;-81
2022/08/13 02:49:04;;;;;;;7.50;4.50;;;18.50;99.90;;;;;;7392865;19;20014;-81
2022/08/13 02:51:31;;;;;;;7.28;4.45;;;18.50;99.90;;;;;;7394672;19;20014;-81
2022/08/13 02:54:00;;;;;;;6.28;3.95;;;18.50;99.90;;;;;;7392885;19;20026;-81
2022/08/13 02:56:29;;;;;;;7.75;4.95;;;18.50;99.90;;;;;;7394553;19;20017;-81
2022/08/13 02:58:56;;;;;;;6.75;5.00;;;18.40;99.90;;;;;;7393901;19;20028;-81
2022/08/13 03:01:26;;;;;;;7.32;4.50;;;18.50;99.90;;;;;;7393671;19;20342;-80
2022/08/13 03:03:53;;;;;;;7.53;4.50;;;18.40;99.90;;;;;;7394607;19;20082;-81
2022/08/13 03:06:20;;;;;;;5.75;4.38;;;18.30;99.90;;;;;;7394550;19;20570;-81
2022/08/13 03:08:49;;;;;;;6.03;4.63;;;18.30;99.90;;;;;;7393861;19;20023;-81
2022/08/13 03:11:15;;;;;;;6.78;4.70;;;18.30;99.90;;;;;;7393564;19;20514;-81
2022/08/13 03:13:51;;;;;;;5.90;4.30;;;18.30;99.90;;;;;;7394218;19;20014;-81
2022/08/13 03:16:22;;;;;;;5.22;4.25;;;18.30;99.90;;;;;;7393603;19;20002;-81
2022/08/13 03:18:48;;;;;;;7.45;4.53;;;18.30;99.90;;;;;;7393295;19;20483;-81
2022/08/13 03:21:16;;;;;;;5.90;4.40;;;18.20;99.90;;;;;;7393483;19;20479;-81
2022/08/13 03:23:43;;;;;;;5.88;4.15;;;18.20;99.90;;;;;;7391881;19;20377;-81
2022/08/13 03:26:11;;;;;;;7.47;4.55;;;18.20;99.90;;;;;;7391581;19;20015;-81
2022/08/13 03:28:38;;;;;;;6.65;4.50;;;18.20;99.90;;;;;;7393247;19;20013;-81
2022/08/13 03:31:05;;;;;;;6.75;4.35;;;18.20;99.90;;;;;;7393144;19;20019;-81
2022/08/13 03:33:32;;;;;;;6.43;4.65;;;18.10;99.90;;;;;;7392967;19;20386;-81
2022/08/13 03:35:58;;;;;;;8.05;5.03;;;18.10;99.90;;;;;;7390070;19;20086;-81
2022/08/13 03:38:24;;;;;;;8.98;4.60;;;18.10;99.90;;;;;;7391890;19;20014;-81
2022/08/13 03:41:02;;;;;;;6.50;4.53;;;18.00;99.90;;;;;;7391215;19;20018;-81
2022/08/13 03:43:30;;;;;;;5.90;4.70;;;18.00;99.90;;;;;;7391290;19;20480;-81
2022/08/13 03:45:57;;;;;;;7.97;4.82;;;17.90;99.90;;;;;;7392989;19;20007;-81
2022/08/13 03:48:25;;;;;;;5.30;4.65;;;17.80;99.90;;;;;;7392573;19;20011;-81
2022/08/13 03:50:52;;;;;;;5.93;4.43;;;17.70;99.90;;;;;;7398824;19;20010;-81
2022/08/13 03:53:18;;;;;;;5.35;4.82;;;17.70;99.90;;;;;;7400444;19;20047;-81
2022/08/13 03:55:44;;;;;;;8.75;4.13;;;17.70;99.90;;;;;;7399734;19;20014;-81
2022/08/13 03:58:11;;;;;;;6.40;4.32;;;17.70;99.90;;;;;;7400202;19;20010;-81
2022/08/13 04:00:42;;;;;;;7.78;4.68;;;17.70;99.90;;;;;;7396185;19;20074;-81
2022/08/13 04:03:16;;;;;;;9.25;4.85;;;17.70;99.90;;;;;;7400145;19;20031;-81
2022/08/13 04:05:43;;;;;;;7.68;4.50;;;17.60;99.90;;;;;;7399860;19;20538;-81
2022/08/13 04:08:10;;;;;;;5.22;4.35;;;17.60;99.90;;;;;;7398380;19;20483;-81
2022/08/13 04:10:37;;;;;;;7.03;4.63;;;17.60;99.90;;;;;;7400141;19;20019;-81
2022/08/13 04:13:09;;;;;;;5.80;4.72;;;17.60;99.90;;;;;;7399696;19;20017;-81
2022/08/13 04:15:35;;;;;;;8.38;5.05;;;17.60;99.90;;;;;;7400051;19;20034;-80
2022/08/13 04:18:00;;;;;;;8.23;4.93;;;17.50;99.90;;;;;;7399448;19;20015;-81
2022/08/13 04:20:27;;;;;;;7.72;4.55;;;17.40;99.90;;;;;;7400888;19;20011;-80
2022/08/13 04:22:54;;;;;;;5.97;4.57;;;17.50;99.90;;;;;;7399159;19;20013;-80
2022/08/13 04:25:20;;;;;;;4.70;3.83;;;17.40;99.90;;;;;;7397992;19;20018;-81
2022/08/13 04:27:46;;;;;;;7.00;4.18;;;17.50;99.90;;;;;;7399271;19;20011;-81
2022/08/13 04:30:16;;;;;;;6.75;4.35;;;17.50;99.90;;;;;;7399143;19;20010;-81
2022/08/13 04:32:45;;;;;;;8.13;4.45;;;17.50;99.90;;;;;;7399218;19;20006;-81
2022/08/13 04:35:11;;;;;;;7.40;4.88;;;17.50;99.90;;;;;;7397218;19;20017;-81
2022/08/13 04:37:37;;;;;;;7.60;4.05;;;17.50;99.90;;;;;;7397568;19;20010;-81
2022/08/13 04:40:04;;;;;;;7.20;4.50;;;17.50;99.90;;;;;;7396894;19;20102;-81
2022/08/13 04:42:52;;;;;;;8.00;4.30;;;17.40;99.90;;;;;;7398819;19;20018;-80
2022/08/13 04:45:21;;;;;;;9.18;4.45;;;17.50;99.90;;;;;;7398674;19;20016;-81
2022/08/13 04:47:47;;;;;;;8.38;4.50;;;17.50;99.90;;;;;;7398710;19;20010;-80
2022/08/13 04:50:14;;;;;;;7.63;4.53;;;17.50;99.90;;;;;;7396998;19;20007;-81
2022/08/13 04:52:40;;;;;;;5.65;4.07;;;17.50;99.90;;;;;;7398668;19;20011;-81
2022/08/13 04:55:11;;;;;;;7.18;4.50;;;17.50;99.90;;;;;;7397136;19;20031;-80
2022/08/13 04:57:38;;;;;;;7.53;4.28;;;17.50;99.90;;;;;;7398445;19;20031;-81
2022/08/13 05:00:06;;;;;;;6.35;4.13;;;17.50;99.90;;;;;;7393926;19;20006;-80
2022/08/13 05:02:40;;;;;;;7.45;4.47;;;17.50;99.90;;;;;;7396268;19;20010;-80
2022/08/13 05:05:07;;;;;;;5.93;4.35;;;17.60;99.90;;;;;;7397978;19;20013;-80
2022/08/13 05:07:34;;;;;;;8.30;4.13;;;17.70;99.90;;;;;;7398271;19;20011;-81
2022/08/13 05:10:00;;;;;;;5.72;4.20;;;17.70;99.90;;;;;;7397696;19;20396;-80
2022/08/13 05:12:26;;;;;;;6.70;4.40;;;17.70;99.90;;;;;;7395999;19;20490;-81
2022/08/13 05:14:52;;;;;;;8.73;4.22;;;17.70;99.90;;;;;;7397623;19;20014;-81
2022/08/13 05:17:18;;;;;;;6.47;4.45;;;17.70;99.90;;;;;;7398013;19;20010;-81
2022/08/13 05:19:47;;;;;;;9.57;3.95;;;17.80;99.90;;;;;;7398380;19;20010;-79
2022/08/13 05:22:13;;;;;;;7.78;4.28;;;17.90;99.90;;;;;;7397836;19;20089;-80
2022/08/13 05:24:40;;;;;;;11.00;4.30;;;17.90;99.90;;;;;;7395228;19;20031;-80
2022/08/13 05:27:09;;;;;;;6.00;4.10;;;17.90;99.90;;;;;;7395556;19;20378;-80
2022/08/13 05:29:37;;;;;;;8.90;4.55;;;17.90;99.90;;;;;;7397630;19;20033;-80
2022/08/13 05:32:04;;;;;;;8.65;4.00;;;17.90;99.90;;;;;;7395725;19;20074;-80
2022/08/13 05:34:31;;;;;;;5.63;4.35;;;17.90;99.90;;;;;;7394634;19;20047;-80
2022/08/13 05:36:58;;;;;;;7.00;4.25;;;18.00;99.90;;;;;;7395630;19;20010;-80
2022/08/13 05:39:24;;;;;;;5.50;4.28;;;18.10;99.90;;;;;;7396489;19;20372;-80
2022/08/13 05:41:50;;;;;;;6.28;4.10;;;18.20;99.90;;;;;;7396638;19;20010;-80
2022/08/13 05:44:16;;;;;;;6.47;3.97;;;18.20;99.90;;;;;;7395221;19;20017;-80
2022/08/13 05:46:42;;;;;;;6.75;4.20;;;18.20;99.90;;;;;;7395036;19;20010;-80
2022/08/13 05:49:08;;;;;;;6.45;3.95;;;18.20;99.90;;;;;;7396524;19;20040;-80
2022/08/13 05:51:34;;;;;;;6.25;4.18;;;18.30;99.90;;;;;;7396459;19;20014;-80
2022/08/13 05:54:01;;;;;;;5.35;4.20;;;18.30;99.90;;;;;;7394777;19;20388;-80
2022/08/13 05:56:28;;;;;;;6.35;4.20;;;18.40;99.90;;;;;;7395620;19;20010;-80
2022/08/13 05:58:54;;;;;;;5.05;4.10;;;18.50;99.90;;;;;;7396218;19;20031;-79
2022/08/13 06:04:13;;;;;;;8.00;4.50;;;18.80;99.90;;;;;;7394857;19;20007;-79
2022/08/13 06:06:39;;;;;;;7.35;4.63;;;18.90;99.90;;;;;;7395661;19;20019;-79
2022/08/13 06:09:06;;;;;;;5.53;4.22;;;19.00;99.90;;;;;;7395811;19;20018;-79
2022/08/13 06:11:33;;;;;;;8.00;4.10;;;19.00;99.90;;;;;;7394226;19;20008;-79
2022/08/13 06:14:00;;;;;;;6.10;4.63;;;19.00;99.90;;;;;;7396175;19;20015;-79
2022/08/13 06:16:30;;;;;;;5.70;3.80;;;19.10;99.90;;;;;;7395626;19;20499;-79
2022/08/13 06:18:59;;;;;;;6.50;4.18;;;19.10;99.90;;;;;;7398317;19;20089;-79
2022/08/13 06:21:26;;;;;;;6.97;4.10;;;19.30;99.90;;;;;;7394301;19;20007;-79
2022/08/13 06:23:53;;;;;;;8.02;4.38;;;19.40;99.90;;;;;;7395329;19;20011;-79
2022/08/13 06:26:20;;;;;;;6.25;3.88;;;19.50;99.90;;;;;;7393230;19;20035;-79
2022/08/13 06:28:52;;;;;;;7.25;4.20;;;19.50;99.90;;;;;;7394245;19;20015;-79
2022/08/13 06:31:25;;;;;;;7.07;4.50;;;19.60;99.90;;;;;;7393385;19;20006;-79
2022/08/13 06:33:56;;;;;;;8.93;4.03;;;19.80;99.90;;;;;;7394723;19;20491;-80
2022/08/13 06:36:28;;;;;;;6.63;4.00;;;19.90;99.90;;;;;;7393260;19;20080;-79
2022/08/13 06:39:01;;;;;;;5.65;4.10;;;20.00;99.90;;;;;;7394759;19;20011;-79
2022/08/13 06:41:28;;;;;;;5.57;4.20;;;20.40;99.90;;;;;;7393628;19;20014;-81
2022/08/13 06:43:56;;;;;;;7.72;3.95;;;20.50;99.90;;;;;;7395121;19;20011;-80
2022/08/13 06:46:27;;;;;;;4.65;4.13;;;20.50;99.90;;;;;;7392967;19;20396;-80
2022/08/13 06:48:55;;;;;;;10.20;4.40;;;20.50;99.90;;;;;;7394848;19;20010;-80
2022/08/13 06:51:22;;;;;;;6.40;3.90;;;20.60;99.90;;;;;;7394572;19;20021;-81
2022/08/13 06:53:48;;;;;;;4.57;4.07;;;20.60;99.90;;;;;;7394367;19;20014;-80
2022/08/13 06:56:23;;;;;;;5.85;4.00;;;20.70;99.90;;;;;;7392220;19;20089;-81
2022/08/13 06:58:50;;;;;;;5.72;3.90;;;20.80;99.90;;;;;;7394355;19;20007;-81
2022/08/13 07:01:19;;;;;;;5.28;3.42;;;20.90;99.90;;;;;;7394158;19;20014;-81
2022/08/13 07:03:46;;;;;;;7.95;3.13;;;21.30;99.90;;;;;;7392343;19;20033;-81
2022/08/13 07:06:18;;;;;;;6.60;3.40;;;22.00;99.90;;;;;;7394520;19;20010;-81
2022/08/13 07:08:45;;;;;;;6.47;3.33;;;23.20;99.90;;;;;;7394017;19;20026;-80
2022/08/13 07:11:23;;;;;;;6.18;3.20;;;24.40;99.90;;;;;;7393685;19;20015;-81
2022/08/13 07:14:07;;;;;;;7.32;3.10;;;25.10;99.90;;;;;;7394033;19;20010;-80
2022/08/13 07:16:34;;;;;;;5.63;3.13;;;25.20;99.90;;;;;;7393992;19;20695;-80
2022/08/13 07:19:03;;;;;;;4.20;2.63;;;24.90;99.90;;;;;;7397387;19;20019;-80
2022/08/13 07:21:31;;;;;;;3.63;2.50;;;25.20;99.70;;;;;;7393605;19;20022;-81
2022/08/13 07:24:00;;;;;;;4.32;2.20;;;25.40;99.50;;;;;;7391581;19;20013;-81
2022/08/13 07:26:31;;;;;;;3.92;2.47;;;25.90;99.30;;;;;;7389918;19;20500;-81
2022/08/13 07:28:57;;;;;;;6.78;2.50;;;25.30;98.70;;;;;;7393482;19;20475;-81
2022/08/13 07:31:29;;;;;;;4.80;2.33;;;25.40;99.00;;;;;;7393752;19;20006;-81
2022/08/13 07:33:59;;;;;;;5.00;2.70;;;26.20;98.50;;;;;;7393189;19;20026;-81
2022/08/13 07:36:27;;;;;;;3.65;1.77;;;27.30;97.60;;;;;;7392896;19;20368;-81
2022/08/13 07:38:54;;;;;;;3.38;2.50;;;28.10;96.50;;;;;;7391417;19;20022;-81
2022/08/13 07:41:20;;;;;;;5.43;2.10;;;29.20;95.50;;;;;;7391661;19;20014;-81
2022/08/13 07:43:47;;;;;;;2.60;2.08;;;29.50;94.70;;;;;;7391910;19;20014;-81
2022/08/13 07:46:15;;;;;;;3.45;2.13;;;29.80;93.40;;;;;;7392922;19;20033;-81
2022/08/13 07:48:52;;;;;;;2.42;1.60;;;30.00;92.80;;;;;;7392805;19;20364;-81
2022/08/13 07:51:20;;;;;;;3.65;1.95;;;29.90;92.30;;;;;;7391117;19;20014;-81
2022/08/13 07:53:52;;;;;;;3.15;1.85;;;29.90;91.20;;;;;;7392638;19;20007;-80
2022/08/13 07:56:31;;;;;;;3.97;1.60;;;29.80;91.20;;;;;;7392352;19;20014;-80
2022/08/13 07:59:00;;;;;;;4.47;1.50;;;29.60;90.70;;;;;;7392845;19;20386;-80
2022/08/13 08:01:30;;;;;;;2.58;1.60;;;29.50;90.60;;;;;;7392575;19;20015;-80
2022/08/13 08:04:02;;;;;;;3.63;1.63;;;29.50;91.10;;;;;;7392814;19;20021;-81
2022/08/13 08:06:30;;;;;;;2.67;1.48;;;29.70;90.90;;;;;;7392629;19;20034;-81
2022/08/13 08:08:59;;;;;;;2.92;1.73;;;30.10;90.90;;;;;;7392971;19;20063;-80
2022/08/13 08:14:16;;;;;;;4.95;1.60;;;30.40;90.40;;;;;;7392540;19;20015;-81
2022/08/13 08:16:44;;;;;;;4.30;1.63;;;30.50;90.60;;;;;;7392641;19;20022;-81
2022/08/13 08:19:13;;;;;;;3.42;1.45;;;30.50;90.40;;;;;;7390349;19;20034;-81
2022/08/13 08:21:43;;;;;;;4.32;1.60;;;30.50;89.60;;;;;;7391775;19;20345;-81
2022/08/13 08:24:09;;;;;;;5.28;1.70;;;30.70;89.80;;;;;;7391861;19;20010;-81
2022/08/13 08:26:36;;;;;;;5.13;1.80;;;30.70;89.90;;;;;;7389729;19;20017;-81
2022/08/13 08:29:10;;;;;;;3.60;1.25;;;30.70;89.40;;;;;;7392088;19;20070;-81
2022/08/13 08:31:40;;;;;;;5.07;1.23;;;30.50;86.70;;;;;;7391702;19;20014;-80
2022/08/13 08:34:08;;;;;;;4.03;1.40;;;30.40;87.40;;;;;;7391137;19;20372;-81
2022/08/13 08:36:41;;;;;;;3.25;1.20;;;30.50;88.40;;;;;;7399247;19;20348;-81
2022/08/13 08:44:43;;;;;;;2.05;1.30;;;29.70;85.80;;;;;;7399015;19;20010;-81
2022/08/13 08:47:11;;;;;;;4.10;1.50;;;28.90;85.90;;;;;;7398727;19;20010;-81
2022/08/13 08:49:38;;;;;;;3.10;1.10;;;28.60;86.70;;;;;;7399265;19;20042;-81
2022/08/13 08:52:05;;;;;;;1.75;1.10;;;28.40;85.30;;;;;;7398670;19;20010;-80
2022/08/13 08:54:32;;;;;;;4.95;1.55;;;28.20;86.70;;;;;;7398298;19;20006;-81
2022/08/13 08:56:59;;;;;;;2.90;1.40;;;28.30;86.90;;;;;;7398777;19;20002;-81
2022/08/13 08:59:41;;;;;;;5.10;1.30;;;28.20;87.10;;;;;;7397629;19;20010;-81
2022/08/13 09:02:18;;;;;;;2.40;1.45;;;28.30;87.70;;;;;;7398379;19;20077;-81
2022/08/13 09:04:53;;;;;;;1.83;1.10;;;28.40;87.90;;;;;;7398302;19;20011;-80
2022/08/13 09:07:23;;;;;;;2.42;1.20;;;28.40;85.70;;;;;;7397977;19;20014;-81
2022/08/13 09:09:56;;;;;;;3.58;1.30;;;28.40;86.90;;;;;;7398424;19;20014;-81
2022/08/13 09:12:25;;;;;;;2.95;1.10;;;28.40;86.30;;;;;;7397882;19;20082;-81
2022/08/13 09:14:52;;;;;;;2.55;1.10;;;28.50;86.30;;;;;;7398282;19;20023;-81
2022/08/13 09:17:19;;;;;;;1.42;1.23;;;28.60;86.90;;;;;;7400256;19;20011;-81
2022/08/13 09:19:46;;;;;;;1.25;1.10;;;28.70;87.50;;;;;;7396801;19;20352;-81
2022/08/13 09:22:14;;;;;;;3.15;1.17;;;28.80;86.80;;;;;;7396492;19;20014;-81
2022/08/13 09:24:45;;;;;;;3.47;1.25;;;28.80;86.20;;;;;;7397062;19;20019;-81
2022/08/13 09:27:15;;;;;;;2.92;1.20;;;29.00;86.20;;;;;;7397323;19;20014;-81
2022/08/13 09:29:42;;;;;;;4.32;1.30;;;29.00;84.60;;;;;;7395872;19;20010;-81
2022/08/13 09:32:09;;;;;;;1.67;1.13;;;28.90;84.50;;;;;;7397228;19;20011;-81
2022/08/13 09:34:37;;;;;;;1.80;1.20;;;29.10;85.70;;;;;;7394843;19;20042;-80
2022/08/13 09:37:04;;;;;;;2.95;1.40;;;29.20;83.30;;;;;;7395557;19;20355;-80
2022/08/13 09:39:39;;;;;;;2.92;1.30;;;29.10;82.80;;;;;;7396394;19;20014;-81
2022/08/13 09:42:16;;;;;;;2.05;1.02;;;29.10;82.00;;;;;;7395807;19;20015;-81
2022/08/13 09:44:42;;;;;;;2.92;1.05;;;29.10;81.30;;;;;;7396938;19;20371;-81
2022/08/13 09:47:12;;;;;;;2.95;1.10;;;29.20;82.10;;;;;;7393571;19;20034;-81
2022/08/13 09:49:38;;;;;;;2.83;1.05;;;29.30;82.80;;;;;;7396589;19;20014;-81
2022/08/13 09:52:04;;;;;;;3.85;1.40;;;29.50;83.50;;;;;;7396609;19;20011;-81
2022/08/13 09:54:32;;;;;;;1.40;1.30;;;29.50;84.20;;;;;;7395029;19;20511;-81
2022/08/13 09:56:58;;;;;;;7.40;1.38;;;29.60;83.80;;;;;;7396044;19;20094;-81
2022/08/13 09:59:24;;;;;;;3.83;1.55;;;29.60;83.00;;;;;;7395781;19;20010;-81
2022/08/13 10:01:52;;;;;;;2.90;1.30;;;29.60;84.10;;;;;;7396120;19;20027;-80
2022/08/13 10:04:18;;;;;;;1.50;1.30;;;29.70;83.00;;;;;;7394653;19;20505;-81
2022/08/13 10:06:45;;;;;;;2.30;1.40;;;29.60;83.70;;;;;;7394940;19;20069;-81
2022/08/13 10:09:12;;;;;;;2.00;1.13;;;29.60;81.70;;;;;;7396133;19;20010;-80
2022/08/13 10:11:38;;;;;;;1.73;1.25;;;29.50;80.70;;;;;;7394509;19;20015;-81
2022/08/13 10:14:06;;;;;;;3.70;1.45;;;29.50;81.10;;;;;;7395846;19;20017;-81
2022/08/13 10:16:32;;;;;;;4.15;1.30;;;29.70;81.90;;;;;;7396188;19;20066;-81
2022/08/13 10:18:57;;;;;;;1.58;1.30;;;29.80;81.50;;;;;;7395258;19;20077;-81
2022/08/13 10:21:24;;;;;;;3.08;1.40;;;29.80;81.40;;;;;;7394361;19;20014;-81
2022/08/13 10:23:50;;;;;;;4.93;1.30;;;30.00;80.20;;;;;;7395482;19;20014;-81
2022/08/13 10:26:19;;;;;;;1.63;1.33;;;30.10;80.70;;;;;;7392239;19;20034;-81
2022/08/13 10:28:47;;;;;;;1.80;1.15;;;30.20;79.50;;;;;;7395290;19;20014;-81
2022/08/13 10:31:13;;;;;;;1.52;1.20;;;30.30;80.90;;;;;;7394879;19;20036;-80
2022/08/13 10:33:39;;;;;;;2.50;1.20;;;30.20;78.00;;;;;;7393255;19;20538;-81
2022/08/13 10:36:06;;;;;;;2.25;1.20;;;30.20;78.00;;;;;;7393817;19;20045;-81
2022/08/13 10:38:33;;;;;;;4.43;1.30;;;30.10;78.20;;;;;;7395062;19;20011;-81
2022/08/13 10:41:01;;;;;;;2.00;1.30;;;30.10;77.90;;;;;;7393419;19;20099;-81
2022/08/13 10:43:27;;;;;;;3.47;1.40;;;30.20;78.60;;;;;;7394921;19;20010;-81
2022/08/13 10:45:59;;;;;;;1.55;1.15;;;30.20;78.30;;;;;;7394514;19;20503;-81
2022/08/13 10:48:26;;;;;;;1.30;1.10;;;30.30;77.50;;;;;;7394500;19;20073;-80
2022/08/13 10:50:53;;;;;;;5.40;1.20;;;30.20;75.50;;;;;;7393216;19;20014;-81
2022/08/13 10:56:05;;;;;;;3.40;1.30;;;30.30;77.80;;;;;;7394050;19;20029;-80
2022/08/13 10:58:31;;;;;;;4.22;1.10;;;30.40;77.60;;;;;;7391910;19;20379;-81
2022/08/13 11:01:03;;;;;;;2.90;1.27;;;30.40;77.60;;;;;;7392727;19;20588;-81
2022/08/13 11:03:33;;;;;;;3.05;1.40;;;30.50;77.70;;;;;;7395214;19;20006;-81
2022/08/13 11:06:00;;;;;;;3.08;1.20;;;30.60;76.10;;;;;;7393968;19;20026;-81
2022/08/13 11:08:27;;;;;;;2.22;1.33;;;30.50;77.10;;;;;;7393840;19;20365;-81
2022/08/13 11:10:53;;;;;;;3.22;1.30;;;30.60;78.50;;;;;;7394220;19;20014;-81
2022/08/13 11:13:19;;;;;;;2.55;1.58;;;30.60;76.90;;;;;;7392245;19;20425;-81
2022/08/13 11:15:45;;;;;;;2.55;1.10;;;30.60;77.90;;;;;;7394831;19;20070;-80
2022/08/13 11:18:11;;;;;;;3.33;1.50;;;30.60;76.70;;;;;;7392601;19;20037;-81
2022/08/13 11:21:22;;;;;;;1.60;1.25;;;30.60;76.60;;;;;;7392556;19;20020;-82
2022/08/13 11:23:23;;;;;;;2.45;1.10;;;30.70;76.60;;;;;;7391680;19;20485;-81
2022/08/13 11:25:49;;;;;;;3.08;1.40;;;30.70;77.60;;;;;;7392150;19;20006;-81
2022/08/13 11:28:15;;;;;;;4.03;1.58;;;30.80;77.80;;;;;;7392451;19;20160;-81
2022/08/13 11:30:41;;;;;;;3.63;1.45;;;30.90;77.60;;;;;;7393966;19;20106;-81
2022/08/13 11:33:07;;;;;;;3.08;1.50;;;31.00;77.80;;;;;;7393329;19;20015;-81
2022/08/13 11:35:34;;;;;;;2.63;1.50;;;31.00;77.30;;;;;;7392248;19;20015;-81
2022/08/13 11:38:07;;;;;;;2.03;1.38;;;30.90;77.30;;;;;;7393135;19;20007;-82
2022/08/13 11:40:34;;;;;;;3.10;1.50;;;31.00;77.20;;;;;;7391876;19;20030;-81
2022/08/13 11:43:00;;;;;;;2.35;1.40;;;31.10;77.10;;;;;;7391926;19;20030;-81
2022/08/13 11:45:26;;;;;;;3.60;1.35;;;31.00;77.20;;;;;;7392887;19;20038;-80
2022/08/13 11:47:52;;;;;;;1.67;1.58;;;31.00;78.60;;;;;;7393150;19;20014;-81
2022/08/13 11:50:18;;;;;;;4.97;1.63;;;30.80;78.30;;;;;;7392816;19;20030;-81
2022/08/13 11:52:44;;;;;;;3.33;1.40;;;30.60;78.80;;;;;;7391074;19;20027;-81
2022/08/13 11:55:10;;;;;;;3.03;1.67;;;30.70;78.90;;;;;;7392831;19;20014;-81
2022/08/13 11:57:36;;;;;;;5.68;1.48;;;30.80;78.40;;;;;;7392402;19;20046;-81
2022/08/13 12:00:07;;;;;;;7.10;1.58;;;30.90;77.30;;;;;;7391560;19;20018;-82
2022/08/13 12:02:33;;;;;;;3.80;1.52;;;31.00;78.20;;;;;;7392325;19;20429;-81
2022/08/13 12:05:01;;;;;;;3.53;1.58;;;31.00;78.10;;;;;;7392488;19;20014;-81
2022/08/13 12:07:27;;;;;;;3.05;1.90;;;31.00;78.10;;;;;;7390755;19;20019;-81
2022/08/13 12:09:56;;;;;;;3.80;1.70;;;31.00;78.20;;;;;;7395212;19;20089;-81
2022/08/13 12:12:23;;;;;;;4.78;1.60;;;31.00;78.30;;;;;;7399827;19;20030;-81
2022/08/13 12:14:50;;;;;;;4.22;1.58;;;31.10;78.00;;;;;;7400383;19;20003;-81
2022/08/13 12:17:17;;;;;;;2.50;1.50;;;31.10;79.00;;;;;;7398171;19;20479;-81
2022/08/13 12:19:46;;;;;;;2.90;1.67;;;31.10;77.70;;;;;;7396980;19;20090;-81
2022/08/13 12:22:12;;;;;;;2.65;1.77;;;30.90;78.00;;;;;;7397972;19;20014;-82
2022/08/13 12:24:38;;;;;;;1.35;1.25;;;31.00;78.50;;;;;;7397550;19;20498;-81
2022/08/13 12:27:04;;;;;;;3.00;1.58;;;31.00;79.40;;;;;;7399703;19;20011;-81
2022/08/13 12:29:30;;;;;;;3.45;1.50;;;31.00;77.70;;;;;;7399681;19;20074;-81
2022/08/13 12:31:56;;;;;;;3.28;1.50;;;31.10;77.50;;;;;;7397455;19;20471;-81
2022/08/13 12:34:22;;;;;;;3.28;1.35;;;31.10;78.90;;;;;;7397799;19;20019;-81
2022/08/13 12:36:48;;;;;;;4.65;1.75;;;31.10;78.80;;;;;;7397504;19;20097;-81
2022/08/13 12:39:14;;;;;;;1.98;1.50;;;31.20;77.90;;;;;;7398652;19;20081;-81
2022/08/13 12:41:40;;;;;;;2.90;1.50;;;31.30;76.40;;;;;;7397355;19;20010;-81
2022/08/13 12:44:05;;;;;;;1.92;1.52;;;31.10;77.70;;;;;;7398824;19;20019;-81
2022/08/13 12:46:31;;;;;;;6.68;1.80;;;31.00;77.70;;;;;;7398588;19;20006;-81
2022/08/13 12:48:57;;;;;;;3.70;1.70;;;31.00;77.30;;;;;;7398583;19;20512;-81
2022/08/13 12:51:23;;;;;;;2.22;1.42;;;31.00;77.90;;;;;;7398898;19;20035;-81
2022/08/13 12:53:48;;;;;;;5.40;1.60;;;31.10;77.00;;;;;;7398938;19;20017;-81
2022/08/13 12:56:14;;;;;;;2.92;1.60;;;31.20;76.50;;;;;;7398048;19;20382;-82
2022/08/13 12:58:40;;;;;;;3.28;1.48;;;31.30;76.00;;;;;;7396855;19;20363;-81
2022/08/13 13:01:09;;;;;;;2.42;1.42;;;31.40;77.00;;;;;;7396026;19;20018;-81
2022/08/13 13:03:35;;;;;;;2.58;1.60;;;31.50;76.00;;;;;;7398644;19;20027;-81
2022/08/13 13:06:01;;;;;;;1.83;1.50;;;31.50;76.10;;;;;;7396724;19;20018;-81
2022/08/13 13:08:30;;;;;;;3.85;1.40;;;31.30;75.90;;;;;;7398104;19;20071;-81
2022/08/13 13:11:03;;;;;;;3.17;1.70;;;31.00;76.10;;;;;;7397974;19;20015;-81
2022/08/13 13:13:30;;;;;;;4.03;1.50;;;30.70;76.70;;;;;;7396955;19;20074;-81
2022/08/13 13:15:56;;;;;;;1.60;1.33;;;30.90;76.80;;;;;;7401172;19;20437;-81